createdAt,value
2023-05-14T00:02:19.791Z,3.10
2023-05-14T00:04:49.966Z,3.47
2023-05-14T00:07:20.117Z,2.95
2023-05-14T00:09:50.235Z,3.08
2023-05-14T00:12:20.397Z,3.45
2023-05-14T00:14:50.977Z,3.05
2023-05-14T00:17:21.098Z,3.08
2023-05-14T00:19:51.370Z,3.25
2023-05-14T00:22:21.581Z,3.10
2023-05-14T00:31:14.271Z,3.10
2023-05-14T00:33:44.468Z,3.33
2023-05-14T00:36:14.554Z,3.03
2023-05-14T00:38:44.700Z,3.30
2023-05-14T00:41:14.958Z,3.50
2023-05-14T00:43:45.117Z,3.50
2023-05-14T00:46:16.083Z,3.30
2023-05-14T00:48:46.918Z,3.00
2023-05-14T00:51:18.369Z,2.95
2023-05-14T00:53:48.976Z,3.50
2023-05-14T00:56:19.605Z,3.53
2023-05-14T00:58:49.691Z,3.10
2023-05-14T01:01:19.921Z,3.20
2023-05-14T01:03:50.305Z,3.40
2023-05-14T01:06:36.930Z,3.22
2023-05-14T01:09:18.937Z,3.33
2023-05-14T01:12:01.147Z,2.90
2023-05-14T01:14:54.925Z,3.30
2023-05-14T01:17:28.573Z,3.28
2023-05-14T01:20:00.637Z,3.22
2023-05-14T01:22:30.780Z,3.17
2023-05-14T01:25:00.979Z,3.13
2023-05-14T01:27:46.698Z,2.92
2023-05-14T01:30:23.065Z,3.08
2023-05-14T01:35:29.263Z,2.67
2023-05-14T01:38:05.152Z,2.60
2023-05-14T01:40:37.258Z,2.88
2023-05-14T01:43:08.014Z,2.80
2023-05-14T01:45:38.197Z,2.80
2023-05-14T01:48:08.460Z,3.22
2023-05-14T01:50:38.956Z,3.50
2023-05-14T01:53:09.145Z,3.00
2023-05-14T01:55:39.335Z,3.33
2023-05-14T01:58:09.452Z,3.08
2023-05-14T02:00:39.601Z,3.20
2023-05-14T02:03:09.773Z,3.70
2023-05-14T02:05:39.882Z,3.28
2023-05-14T02:08:10.077Z,3.83
2023-05-14T02:10:40.116Z,3.08
2023-05-14T02:13:10.325Z,3.20
2023-05-14T02:15:40.541Z,3.20
2023-05-14T02:18:10.820Z,3.47
2023-05-14T02:20:41.081Z,3.30
2023-05-14T02:23:11.197Z,3.55
2023-05-14T02:25:41.334Z,3.28
2023-05-14T02:28:11.399Z,2.80
2023-05-14T02:30:41.584Z,3.22
2023-05-14T02:33:11.847Z,3.05
2023-05-14T02:35:42.076Z,3.28
2023-05-14T02:38:12.436Z,3.38
2023-05-14T02:40:42.514Z,3.13
2023-05-14T02:43:12.626Z,3.15
2023-05-14T02:45:43.182Z,3.10
2023-05-14T02:48:13.377Z,3.30
2023-05-14T02:50:43.557Z,3.13
2023-05-14T02:53:13.841Z,3.47
2023-05-14T02:55:43.997Z,3.47
2023-05-14T02:58:14.118Z,3.42
2023-05-14T03:00:44.243Z,2.75
2023-05-14T03:03:14.814Z,3.42
2023-05-14T03:05:45.586Z,3.40
2023-05-14T03:08:15.754Z,3.22
2023-05-14T03:10:46.181Z,2.88
2023-05-14T03:13:18.098Z,2.85
2023-05-14T03:15:48.802Z,3.58
2023-05-14T03:18:18.959Z,3.15
2023-05-14T03:20:49.275Z,2.72
2023-05-14T03:23:19.427Z,3.25
2023-05-14T03:25:49.574Z,3.20
2023-05-14T03:28:19.703Z,3.50
2023-05-14T03:30:50.006Z,3.30
2023-05-14T03:33:20.300Z,3.50
2023-05-14T03:35:50.472Z,3.08
2023-05-14T03:38:20.613Z,3.67
2023-05-14T03:40:50.791Z,3.05
2023-05-14T03:43:20.929Z,3.13
2023-05-14T03:45:52.852Z,3.15
2023-05-14T03:48:23.136Z,3.15
2023-05-14T03:50:53.484Z,3.13
2023-05-14T03:53:23.604Z,3.40
2023-05-14T03:55:53.789Z,3.60
2023-05-14T03:58:24.018Z,4.10
2023-05-14T04:00:54.344Z,3.70
2023-05-14T04:03:24.689Z,4.65
2023-05-14T04:05:54.790Z,5.00
2023-05-14T04:08:24.916Z,5.28
2023-05-14T04:10:55.421Z,6.07
2023-05-14T04:13:25.645Z,5.90
2023-05-14T04:15:55.835Z,6.22
2023-05-14T04:18:26.077Z,5.93
2023-05-14T04:20:56.444Z,5.45
2023-05-14T04:23:26.609Z,5.57
2023-05-14T04:25:56.748Z,5.35
2023-05-14T04:28:26.993Z,5.90
2023-05-14T04:30:57.170Z,6.93
2023-05-14T04:33:27.413Z,7.18
2023-05-14T04:35:57.533Z,7.22
2023-05-14T04:38:28.365Z,6.53
2023-05-14T04:40:58.629Z,7.30
2023-05-14T04:43:28.742Z,6.38
2023-05-14T04:45:58.995Z,6.30
2023-05-14T04:48:29.166Z,6.18
2023-05-14T04:50:59.333Z,5.60
2023-05-14T04:53:29.496Z,6.05
2023-05-14T04:55:59.663Z,4.45
2023-05-14T04:58:33.793Z,5.22
2023-05-14T05:01:06.125Z,4.93
2023-05-14T05:03:36.231Z,4.35
2023-05-14T05:06:06.623Z,4.32
2023-05-14T05:08:37.182Z,4.22
2023-05-14T05:11:07.370Z,4.57
2023-05-14T05:13:37.401Z,4.43
2023-05-14T05:16:07.775Z,4.55
2023-05-14T05:18:37.990Z,4.75
2023-05-14T05:21:08.160Z,4.38
2023-05-14T05:23:38.358Z,4.28
2023-05-14T05:26:08.668Z,3.85
2023-05-14T05:28:38.752Z,3.80
2023-05-14T05:31:09.082Z,3.97
2023-05-14T05:33:39.442Z,4.28
2023-05-14T05:36:09.667Z,4.07
2023-05-14T05:38:39.745Z,3.80
2023-05-14T05:41:09.895Z,3.80
2023-05-14T05:43:39.974Z,3.70
2023-05-14T05:46:10.666Z,3.15
2023-05-14T05:48:40.878Z,3.30
2023-05-14T05:51:11.669Z,3.10
2023-05-14T05:53:41.941Z,2.85
2023-05-14T05:56:12.045Z,2.97
2023-05-14T05:58:42.249Z,2.47
2023-05-14T06:01:12.388Z,3.08
2023-05-14T06:03:42.616Z,2.33
2023-05-14T06:06:12.738Z,2.95
2023-05-14T06:08:42.929Z,3.08
2023-05-14T06:11:13.300Z,2.88
2023-05-14T06:13:43.499Z,2.83
2023-05-14T06:16:13.635Z,2.58
2023-05-14T06:18:43.855Z,2.58
2023-05-14T06:21:14.099Z,3.30
2023-05-14T06:23:44.449Z,4.60
2023-05-14T06:26:14.670Z,4.75
2023-05-14T06:28:44.991Z,4.13
2023-05-14T06:31:15.224Z,4.30
2023-05-14T06:33:45.453Z,4.53
2023-05-14T06:36:15.664Z,3.47
2023-05-14T06:38:45.828Z,3.65
2023-05-14T06:41:15.954Z,3.20
2023-05-14T06:43:46.460Z,2.90
2023-05-14T06:46:16.575Z,3.13
2023-05-14T06:48:46.904Z,2.40
2023-05-14T06:51:17.127Z,3.17
2023-05-14T06:53:48.966Z,3.63
2023-05-14T06:56:19.065Z,3.15
2023-05-14T06:58:49.320Z,3.30
2023-05-14T07:01:19.511Z,2.83
2023-05-14T07:03:50.002Z,3.20
2023-05-14T07:06:20.235Z,2.50
2023-05-14T07:08:50.363Z,2.42
2023-05-14T07:11:20.528Z,2.78
2023-05-14T07:13:50.751Z,2.78
2023-05-14T07:16:20.922Z,2.85
2023-05-14T07:18:51.378Z,2.75
2023-05-14T07:21:21.568Z,2.78
2023-05-14T07:23:51.677Z,2.50
2023-05-14T07:26:24.532Z,2.55
2023-05-14T07:28:54.701Z,2.17
2023-05-14T07:31:24.822Z,2.53
2023-05-14T07:33:55.087Z,2.38
2023-05-14T07:36:25.937Z,2.97
2023-05-14T07:38:56.125Z,2.40
2023-05-14T07:41:26.324Z,2.28
2023-05-14T07:43:56.553Z,2.55
2023-05-14T07:46:26.914Z,2.30
2023-05-14T07:48:57.050Z,2.55
2023-05-14T07:51:28.600Z,3.00
2023-05-14T07:53:58.688Z,3.05
2023-05-14T07:56:28.856Z,2.55
2023-05-14T07:58:58.919Z,2.50
2023-05-14T08:01:29.071Z,2.20
2023-05-14T08:03:59.265Z,2.30
2023-05-14T08:06:29.826Z,2.78
2023-05-14T08:08:59.950Z,2.42
2023-05-14T08:11:30.062Z,2.10
2023-05-14T08:14:00.442Z,2.53
2023-05-14T08:16:30.650Z,2.40
2023-05-14T08:19:00.911Z,2.47
2023-05-14T08:21:31.819Z,2.40
2023-05-14T08:24:02.098Z,2.75
2023-05-14T08:26:32.581Z,2.60
2023-05-14T08:29:02.800Z,2.30
2023-05-14T08:31:33.057Z,2.38
2023-05-14T08:34:03.235Z,2.30
2023-05-14T08:36:33.339Z,2.72
2023-05-14T08:39:03.550Z,2.50
2023-05-14T08:41:34.675Z,2.60
2023-05-14T08:44:13.616Z,2.50
2023-05-14T08:46:44.429Z,2.55
2023-05-14T08:49:40.566Z,2.90
2023-05-14T08:52:13.885Z,2.30
2023-05-14T08:54:45.641Z,2.30
2023-05-14T08:57:19.000Z,2.42
2023-05-14T08:59:49.330Z,2.35
2023-05-14T09:02:24.543Z,2.50
2023-05-14T09:04:57.598Z,2.70
2023-05-14T09:07:28.560Z,2.78
2023-05-14T09:09:59.216Z,2.30
2023-05-14T09:12:29.393Z,2.00
2023-05-14T09:14:59.542Z,2.10
2023-05-14T09:17:29.793Z,1.67
2023-05-14T09:20:00.003Z,2.08
2023-05-14T09:22:33.572Z,2.30
2023-05-14T09:25:05.957Z,2.00
2023-05-14T09:27:37.463Z,2.63
2023-05-14T09:30:12.956Z,2.17
2023-05-14T09:32:44.691Z,2.10
2023-05-14T09:35:17.988Z,1.90
2023-05-14T09:37:50.798Z,2.08
2023-05-14T09:40:23.632Z,1.70
2023-05-14T09:42:54.538Z,1.88
2023-05-14T09:45:24.776Z,1.90
2023-05-14T09:47:55.058Z,1.73
2023-05-14T09:50:26.812Z,1.98
2023-05-14T09:52:57.814Z,2.10
2023-05-14T09:55:28.391Z,1.90
2023-05-14T09:57:58.593Z,1.90
2023-05-14T10:00:30.220Z,1.90
2023-05-14T10:03:06.847Z,1.80
2023-05-14T10:05:37.794Z,1.70
2023-05-14T10:08:31.140Z,2.03
2023-05-14T10:11:08.574Z,1.90
2023-05-14T10:13:41.859Z,1.88
2023-05-14T10:16:34.142Z,1.80
2023-05-14T10:19:15.819Z,1.58
2023-05-14T10:21:53.337Z,1.70
2023-05-14T10:24:25.867Z,1.58
2023-05-14T10:26:56.778Z,1.52
2023-05-14T10:29:56.336Z,2.05
2023-05-14T10:32:29.070Z,2.50
2023-05-14T10:35:02.023Z,2.38
2023-05-14T10:37:33.659Z,2.10
2023-05-14T10:40:10.108Z,2.10
2023-05-14T10:42:40.929Z,1.90
2023-05-14T10:45:13.641Z,1.85
2023-05-14T10:47:46.060Z,1.70
2023-05-14T10:50:16.428Z,1.95
2023-05-14T10:52:46.640Z,1.70
2023-05-14T10:55:17.470Z,1.67
2023-05-14T10:57:48.021Z,1.70
2023-05-14T11:00:18.440Z,1.70
2023-05-14T11:02:48.626Z,1.83
2023-05-14T11:05:18.807Z,1.50
2023-05-14T11:07:50.177Z,1.70
2023-05-14T11:10:22.428Z,1.52
2023-05-14T11:12:53.035Z,1.90
2023-05-14T11:15:26.212Z,1.67
2023-05-14T11:17:56.554Z,2.05
2023-05-14T11:20:27.122Z,1.70
2023-05-14T11:22:57.413Z,1.30
2023-05-14T11:25:27.626Z,1.73
2023-05-14T11:28:00.889Z,1.98
2023-05-14T11:30:31.713Z,1.80
2023-05-14T11:33:02.293Z,1.63
2023-05-14T11:35:32.637Z,1.48
2023-05-14T11:38:02.836Z,1.60
2023-05-14T11:40:33.068Z,1.80
2023-05-14T11:43:03.447Z,1.80
2023-05-14T11:45:33.724Z,1.33
2023-05-14T11:48:13.027Z,1.65
2023-05-14T11:50:49.148Z,1.73
2023-05-14T11:53:20.199Z,2.00
2023-05-14T11:55:50.510Z,1.60
2023-05-14T11:58:21.449Z,1.50
2023-05-14T12:00:55.817Z,1.40
2023-05-14T12:03:29.525Z,1.67
2023-05-14T12:06:01.759Z,1.23
2023-05-14T12:08:32.493Z,1.70
2023-05-14T12:11:02.688Z,1.95
2023-05-14T12:13:33.334Z,1.80
2023-05-14T12:16:03.923Z,1.67
2023-05-14T12:18:34.375Z,1.50
2023-05-14T12:21:08.055Z,1.95
2023-05-14T12:23:39.445Z,1.70
2023-05-14T12:26:09.599Z,1.60
2023-05-14T12:28:43.816Z,1.48
2023-05-14T12:31:15.823Z,1.33
2023-05-14T12:33:46.115Z,1.50
2023-05-14T12:36:21.990Z,1.52
2023-05-14T12:39:00.937Z,1.60
2023-05-14T12:41:31.466Z,1.40
2023-05-14T12:44:03.679Z,1.27
2023-05-14T12:46:34.506Z,1.40
2023-05-14T12:49:04.789Z,1.80
2023-05-14T12:51:34.852Z,1.40
2023-05-14T12:54:05.069Z,1.65
2023-05-14T12:56:35.449Z,1.77
2023-05-14T12:59:05.658Z,1.40
2023-05-14T13:01:35.801Z,2.40
2023-05-14T13:04:06.403Z,2.40
2023-05-14T13:06:36.866Z,2.63
2023-05-14T13:09:07.955Z,3.20
2023-05-14T13:11:38.044Z,3.35
2023-05-14T13:14:08.343Z,2.83
2023-05-14T13:16:38.488Z,4.00
2023-05-14T13:19:08.778Z,2.53
2023-05-14T13:21:38.937Z,1.95
2023-05-14T13:24:10.292Z,2.10
2023-05-14T13:26:40.417Z,1.60
2023-05-14T13:29:10.907Z,1.30
2023-05-14T13:31:40.999Z,1.48
2023-05-14T13:34:11.096Z,1.60
2023-05-14T13:36:43.802Z,1.60
2023-05-14T13:39:14.559Z,2.38
2023-05-14T13:41:45.666Z,1.90
2023-05-14T13:44:15.780Z,1.40
2023-05-14T13:46:46.060Z,1.70
2023-05-14T13:49:16.319Z,1.20
2023-05-14T13:51:46.474Z,1.50
2023-05-14T13:54:16.610Z,1.58
2023-05-14T13:56:46.727Z,1.52
2023-05-14T13:59:16.824Z,2.17
2023-05-14T14:01:48.312Z,1.77
2023-05-14T14:04:20.031Z,2.25
2023-05-14T14:06:50.138Z,2.10
2023-05-14T14:09:20.253Z,2.83
2023-05-14T14:11:50.899Z,2.55
2023-05-14T14:14:21.022Z,2.50
2023-05-14T14:16:51.080Z,2.42
2023-05-14T14:19:21.632Z,2.38
2023-05-14T14:21:51.972Z,3.20
2023-05-14T14:24:22.181Z,5.47
2023-05-14T14:26:52.357Z,3.30
2023-05-14T14:29:24.140Z,2.60
2023-05-14T14:31:54.497Z,2.50
2023-05-14T14:34:24.848Z,2.53
2023-05-14T14:36:55.097Z,2.53
2023-05-14T14:39:25.552Z,2.08
2023-05-14T14:41:55.930Z,2.00
2023-05-14T14:44:26.005Z,2.28
2023-05-14T14:46:56.159Z,2.05
2023-05-14T14:49:26.649Z,1.92
2023-05-14T14:51:57.238Z,2.00
2023-05-14T14:54:28.229Z,2.55
2023-05-14T14:56:58.354Z,1.60
2023-05-14T14:59:28.731Z,1.60
2023-05-14T15:01:59.113Z,1.40
2023-05-14T15:04:33.254Z,1.90
2023-05-14T15:07:03.834Z,1.63
2023-05-14T15:09:34.178Z,1.45
2023-05-14T15:12:05.481Z,1.67
2023-05-14T15:14:35.907Z,2.20
2023-05-14T15:17:06.342Z,2.10
2023-05-14T15:19:36.783Z,2.55
2023-05-14T15:22:07.135Z,2.13
2023-05-14T15:24:37.403Z,2.47
2023-05-14T15:27:07.580Z,2.55
2023-05-14T15:29:37.864Z,2.35
2023-05-14T15:32:08.447Z,2.22
2023-05-14T15:34:38.674Z,2.50
2023-05-14T15:37:08.761Z,2.35
2023-05-14T15:39:38.994Z,2.10
2023-05-14T15:42:09.228Z,1.88
2023-05-14T15:44:39.468Z,2.20
2023-05-14T15:47:09.542Z,1.98
2023-05-14T15:49:40.067Z,2.33
2023-05-14T15:52:10.223Z,2.25
2023-05-14T15:54:40.492Z,2.03
2023-05-14T15:57:10.664Z,2.20
2023-05-14T15:59:41.161Z,2.28
2023-05-14T16:02:11.645Z,2.30
2023-05-14T16:04:42.067Z,2.45
2023-05-14T16:07:12.490Z,2.75
2023-05-14T16:09:42.918Z,2.58
2023-05-14T16:12:13.114Z,2.63
2023-05-14T16:14:45.330Z,2.40
2023-05-14T16:17:15.448Z,2.72
2023-05-14T16:19:45.637Z,2.65
2023-05-14T16:22:15.777Z,3.30
2023-05-14T16:24:46.158Z,2.90
2023-05-14T16:27:19.603Z,2.83
2023-05-14T16:29:50.965Z,2.65
2023-05-14T16:32:21.787Z,2.67
2023-05-14T16:34:52.076Z,2.72
2023-05-14T16:37:26.038Z,2.70
2023-05-14T16:39:57.330Z,2.72
2023-05-14T16:42:27.882Z,2.78
2023-05-14T16:44:57.952Z,3.40
2023-05-14T16:47:28.217Z,3.38
2023-05-14T16:49:59.806Z,2.60
2023-05-14T16:52:30.112Z,2.63
2023-05-14T16:55:00.496Z,2.95
2023-05-14T16:57:30.724Z,2.90
2023-05-14T17:00:01.153Z,3.10
2023-05-14T17:02:31.493Z,2.75
2023-05-14T17:05:01.883Z,2.92
2023-05-14T17:07:32.121Z,2.92
2023-05-14T17:10:02.388Z,2.88
2023-05-14T17:12:33.676Z,2.55
2023-05-14T17:15:05.743Z,2.72
2023-05-14T17:17:36.084Z,2.42
2023-05-14T17:20:06.773Z,2.65
2023-05-14T17:22:37.127Z,2.63
2023-05-14T17:25:07.970Z,3.00
2023-05-14T17:27:38.173Z,2.58
2023-05-14T17:30:08.840Z,2.75
2023-05-14T17:32:39.202Z,2.83
2023-05-14T17:35:10.478Z,2.67
2023-05-14T17:37:42.918Z,2.50
2023-05-14T17:40:13.432Z,2.50
2023-05-14T17:42:45.605Z,2.42
2023-05-14T17:45:15.847Z,2.67
2023-05-14T17:47:46.399Z,2.92
2023-05-14T17:50:16.744Z,3.00
2023-05-14T17:52:47.759Z,2.92
2023-05-14T17:55:19.355Z,2.85
2023-05-14T17:57:49.672Z,2.78
2023-05-14T18:00:20.056Z,2.90
2023-05-14T18:02:51.536Z,2.88
2023-05-14T18:05:22.007Z,3.00
2023-05-14T18:07:52.916Z,3.20
2023-05-14T18:10:23.062Z,3.95
2023-05-14T18:12:53.196Z,3.80
2023-05-14T18:15:25.773Z,4.00
2023-05-14T18:17:56.095Z,3.22
2023-05-14T18:20:26.268Z,2.78
2023-05-14T18:22:56.358Z,3.30
2023-05-14T18:25:26.729Z,2.70
2023-05-14T18:27:56.855Z,2.47
2023-05-14T18:30:27.285Z,2.20
2023-05-14T18:32:57.566Z,2.90
2023-05-14T18:35:28.197Z,2.40
2023-05-14T18:37:58.438Z,2.70
2023-05-14T18:40:28.942Z,2.63
2023-05-14T18:42:58.998Z,2.80
2023-05-14T18:45:29.227Z,3.00
2023-05-14T18:47:59.412Z,2.72
2023-05-14T18:50:29.797Z,2.78
2023-05-14T18:52:59.935Z,2.72
2023-05-14T18:55:30.252Z,3.00
2023-05-14T18:58:00.506Z,3.42
2023-05-14T19:00:30.583Z,3.33
2023-05-14T19:03:00.811Z,3.33
2023-05-14T19:05:31.202Z,4.32
2023-05-14T19:08:02.067Z,4.20
2023-05-14T19:10:32.205Z,4.63
2023-05-14T19:13:02.442Z,4.45
2023-05-14T19:15:33.972Z,4.45
2023-05-14T19:18:04.303Z,5.18
2023-05-14T19:20:34.562Z,4.68
2023-05-14T19:23:04.693Z,4.05
2023-05-14T19:25:34.985Z,3.80
2023-05-14T19:28:05.897Z,3.70
2023-05-14T19:30:36.098Z,3.38
2023-05-14T19:33:06.301Z,3.30
2023-05-14T19:35:36.447Z,3.38
2023-05-14T19:38:06.733Z,3.78
2023-05-14T19:40:36.912Z,3.45
2023-05-14T19:43:08.795Z,3.42
2023-05-14T19:45:40.674Z,3.30
2023-05-14T19:48:12.670Z,3.63
2023-05-14T19:50:42.924Z,4.00
2023-05-14T19:53:13.495Z,4.75
2023-05-14T19:55:44.022Z,4.47
2023-05-14T19:58:14.172Z,4.53
2023-05-14T20:00:44.578Z,4.30
2023-05-14T20:03:15.031Z,3.65
2023-05-14T20:05:45.781Z,3.45
2023-05-14T20:08:16.923Z,3.80
2023-05-14T20:10:58.261Z,3.53
2023-05-14T20:13:33.123Z,3.50
2023-05-14T20:16:07.607Z,3.92
2023-05-14T20:18:37.845Z,3.20
2023-05-14T20:21:07.979Z,3.20
2023-05-14T20:23:38.338Z,3.20
2023-05-14T20:26:08.454Z,3.10
2023-05-14T20:28:38.714Z,2.72
2023-05-14T20:31:09.331Z,2.80
2023-05-14T20:33:39.583Z,2.80
2023-05-14T20:36:10.118Z,2.80
2023-05-14T20:38:41.074Z,2.40
2023-05-14T20:41:11.537Z,2.60
2023-05-14T20:43:41.677Z,2.20
2023-05-14T20:46:11.973Z,2.10
2023-05-14T20:48:42.102Z,2.20
2023-05-14T20:51:13.279Z,2.00
2023-05-14T20:53:43.444Z,1.67
2023-05-14T20:56:13.749Z,1.98
2023-05-14T20:58:43.861Z,1.70
2023-05-14T21:01:14.015Z,2.00
2023-05-14T21:03:44.536Z,2.13
2023-05-14T21:06:14.931Z,1.85
2023-05-14T21:08:45.243Z,2.42
2023-05-14T21:11:15.473Z,2.05
2023-05-14T21:13:45.833Z,1.65
2023-05-14T21:16:16.053Z,1.80
2023-05-14T21:18:46.584Z,2.22
2023-05-14T21:21:16.753Z,2.05
2023-05-14T21:23:46.989Z,2.10
2023-05-14T21:26:17.807Z,2.08
2023-05-14T21:28:48.452Z,2.22
2023-05-14T21:31:18.756Z,1.90
2023-05-14T21:33:48.958Z,1.90
2023-05-14T21:36:20.546Z,2.05
2023-05-14T21:38:52.820Z,2.08
2023-05-14T21:41:23.549Z,2.15
2023-05-14T21:43:53.791Z,2.13
2023-05-14T21:46:24.089Z,2.08
2023-05-14T21:48:54.405Z,2.30
2023-05-14T21:51:24.744Z,2.55
2023-05-14T21:53:55.035Z,2.35
2023-05-14T21:56:25.203Z,1.77
2023-05-14T21:58:56.248Z,2.00
2023-05-14T22:01:26.547Z,1.80
2023-05-14T22:03:58.026Z,2.30
2023-05-14T22:06:28.337Z,1.50
2023-05-14T22:08:58.470Z,1.65
2023-05-14T22:11:28.687Z,1.50
2023-05-14T22:13:59.014Z,1.80
2023-05-14T22:16:29.246Z,1.60
2023-05-14T22:18:59.443Z,2.10
2023-05-14T22:21:29.626Z,1.80
2023-05-14T22:23:59.697Z,1.80
2023-05-14T22:26:29.869Z,1.92
2023-05-14T22:28:59.948Z,1.50
2023-05-14T22:31:30.223Z,1.85
2023-05-14T22:34:00.459Z,2.10
2023-05-14T22:36:30.837Z,1.77
2023-05-14T22:39:01.181Z,2.33
2023-05-14T22:41:32.188Z,2.53
2023-05-14T22:44:02.470Z,1.85
2023-05-14T22:46:32.737Z,2.10
2023-05-14T22:49:03.478Z,1.92
2023-05-14T22:51:33.853Z,2.42
2023-05-14T22:54:03.974Z,2.38
2023-05-14T22:56:34.302Z,2.35
2023-05-14T22:59:04.459Z,2.30
2023-05-14T23:01:34.653Z,2.30
2023-05-14T23:04:04.934Z,3.20
2023-05-14T23:06:35.124Z,2.60
2023-05-14T23:09:05.273Z,2.30
2023-05-14T23:11:35.328Z,2.33
2023-05-14T23:14:05.512Z,2.83
2023-05-14T23:16:35.786Z,2.33
2023-05-14T23:19:06.193Z,2.60
2023-05-14T23:21:36.725Z,2.80
2023-05-14T23:24:07.151Z,2.75
2023-05-14T23:26:37.291Z,2.50
2023-05-14T23:29:07.524Z,2.70
2023-05-14T23:31:38.792Z,2.50
2023-05-14T23:34:08.955Z,2.90
2023-05-14T23:36:39.903Z,2.60
2023-05-14T23:39:10.578Z,2.97
2023-05-14T23:41:40.790Z,2.63
2023-05-14T23:44:10.942Z,2.22
2023-05-14T23:46:41.234Z,2.70
2023-05-14T23:49:11.596Z,2.88
2023-05-14T23:51:41.774Z,2.33
2023-05-14T23:54:12.003Z,2.50
2023-05-14T23:56:42.221Z,2.10
2023-05-14T23:59:12.494Z,2.60
